createdAt,value
2022-11-19T00:01:46.159Z,100903.97
2022-11-19T00:04:43.559Z,100908.31
2022-11-19T00:07:40.211Z,100913.38
2022-11-19T00:10:38.213Z,100904.78
2022-11-19T00:13:35.636Z,100896.22
2022-11-19T00:16:33.384Z,100904.13
2022-11-19T00:19:30.156Z,100908.94
2022-11-19T00:22:27.465Z,100908.94
2022-11-19T00:25:25.623Z,100915.75
2022-11-19T00:28:23.190Z,100916.03
2022-11-19T00:31:20.128Z,100927.88
2022-11-19T00:34:17.164Z,100929.84
2022-11-19T00:37:14.488Z,100942.28
2022-11-19T00:40:12.807Z,100933.59
2022-11-19T00:43:29.043Z,100921.25
2022-11-19T00:46:30.897Z,100930.50
2022-11-19T00:49:28.263Z,100932.59
2022-11-19T00:52:25.492Z,100935.38
2022-11-19T00:55:22.493Z,100940.44
2022-11-19T00:58:19.600Z,100959.75
2022-11-19T01:01:18.163Z,100952.81
2022-11-19T01:04:15.261Z,100956.28
2022-11-19T01:07:12.660Z,100947.03
2022-11-19T01:10:10.342Z,100945.44
2022-11-19T01:13:25.517Z,100957.91
2022-11-19T01:16:27.545Z,100954.06
2022-11-19T01:19:24.517Z,100956.63
2022-11-19T01:22:21.250Z,100961.88
2022-11-19T01:25:18.501Z,100968.16
2022-11-19T01:28:15.616Z,100971.78
2022-11-19T01:31:17.240Z,100969.06
2022-11-19T01:34:14.170Z,100975.75
2022-11-19T01:37:11.139Z,100977.19
2022-11-19T01:40:09.240Z,100977.50
2022-11-19T01:43:06.035Z,100972.25
2022-11-19T01:46:03.617Z,100974.53
2022-11-19T01:49:09.511Z,100974.03
2022-11-19T01:52:06.573Z,100978.81
2022-11-19T01:55:03.285Z,100988.47
2022-11-19T01:58:00.498Z,101006.47
2022-11-19T02:00:57.628Z,101009.72
2022-11-19T02:03:54.393Z,101011.91
2022-11-19T02:06:51.261Z,101009.75
2022-11-19T02:09:48.262Z,101010.13
2022-11-19T02:12:56.723Z,101007.34
2022-11-19T02:15:57.552Z,101019.31
2022-11-19T02:19:17.993Z,101022.94
2022-11-19T02:22:50.673Z,101026.28
2022-11-19T02:26:15.101Z,101023.00
2022-11-19T02:29:30.633Z,101034.88
2022-11-19T02:32:36.225Z,101041.28
2022-11-19T02:35:44.960Z,101040.44
2022-11-19T02:38:49.185Z,101030.47
2022-11-19T02:42:04.375Z,101049.00
2022-11-19T02:45:10.659Z,101040.69
2022-11-19T02:48:28.026Z,101045.72
2022-11-19T02:51:25.392Z,101048.25
2022-11-19T02:54:22.112Z,101058.50
2022-11-19T02:57:19.457Z,101048.53
2022-11-19T03:00:35.405Z,101076.50
2022-11-19T03:03:50.708Z,101051.59
2022-11-19T03:06:48.825Z,101063.53
2022-11-19T03:09:53.033Z,101063.53
2022-11-19T03:12:56.617Z,101076.84
2022-11-19T03:16:13.673Z,101068.53
2022-11-19T03:19:28.508Z,101070.16
2022-11-19T03:22:27.476Z,101076.28
2022-11-19T03:25:29.334Z,101060.19
2022-11-19T03:28:29.306Z,101066.84
2022-11-19T03:31:26.525Z,101067.69
2022-11-19T03:34:23.674Z,101080.72
2022-11-19T03:37:21.363Z,101075.16
2022-11-19T03:40:18.866Z,101085.69
2022-11-19T03:43:18.317Z,101075.44
2022-11-19T03:46:16.379Z,101077.09
2022-11-19T03:49:13.525Z,101085.69
2022-11-19T03:52:18.646Z,101079.06
2022-11-19T03:55:16.374Z,101088.47
2022-11-19T03:58:13.527Z,101077.09
2022-11-19T04:01:10.817Z,101091.78
2022-11-19T04:04:27.132Z,101090.94
2022-11-19T04:07:24.525Z,101097.31
2022-11-19T04:10:21.209Z,101108.97
2022-11-19T04:13:18.473Z,101109.00
2022-11-19T04:16:15.555Z,101107.88
2022-11-19T04:19:12.587Z,101109.28
2022-11-19T04:22:09.427Z,101111.22
2022-11-19T04:25:06.795Z,101114.00
2022-11-19T04:28:04.393Z,101116.75
2022-11-19T04:31:01.322Z,101107.59
2022-11-19T04:33:58.417Z,101116.75
2022-11-19T04:36:55.283Z,101125.63
2022-11-19T04:39:52.094Z,101127.81
2022-11-19T04:42:49.662Z,101126.97
2022-11-19T04:45:46.777Z,101128.69
2022-11-19T04:48:44.444Z,101127.56
2022-11-19T04:51:41.664Z,101133.09
2022-11-19T04:54:39.312Z,101139.81
2022-11-19T04:57:36.115Z,101129.50
2022-11-19T05:00:33.535Z,101133.41
2022-11-19T05:03:30.330Z,101135.59
2022-11-19T05:06:27.129Z,101127.22
2022-11-19T05:09:24.500Z,101143.03
2022-11-19T05:12:21.591Z,101151.09
2022-11-19T05:15:18.649Z,101167.75
2022-11-19T05:18:15.577Z,101172.22
2022-11-19T05:21:12.324Z,101163.34
2022-11-19T05:24:09.385Z,101164.44
2022-11-19T05:27:06.420Z,101165.81
2022-11-19T05:30:04.500Z,101177.22
2022-11-19T05:33:01.659Z,101180.00
2022-11-19T05:35:58.653Z,101192.53
2022-11-19T05:38:57.879Z,101192.81
2022-11-19T05:41:55.396Z,101188.41
2022-11-19T05:44:52.606Z,101185.06
2022-11-19T05:47:54.566Z,101170.34
2022-11-19T05:50:53.916Z,101180.34
2022-11-19T05:53:52.501Z,101181.44
2022-11-19T05:56:49.589Z,101184.22
2022-11-19T05:59:46.482Z,101178.38
2022-11-19T06:02:43.407Z,101188.38
2022-11-19T06:05:40.920Z,101203.41
2022-11-19T06:08:38.559Z,101191.75
2022-11-19T06:11:50.974Z,101189.47
2022-11-19T06:14:48.626Z,101181.97
2022-11-19T06:17:45.802Z,101189.13
2022-11-19T06:20:42.475Z,101186.63
2022-11-19T06:23:39.677Z,101201.56
2022-11-19T06:26:36.521Z,101208.28
2022-11-19T06:29:33.808Z,101210.50
2022-11-19T06:32:30.627Z,101216.06
2022-11-19T06:35:27.305Z,101221.63
2022-11-19T06:38:24.185Z,101223.28
2022-11-19T06:41:21.345Z,101216.59
2022-11-19T06:44:18.727Z,101227.47
2022-11-19T06:47:15.636Z,101232.22
2022-11-19T06:50:12.841Z,101233.84
2022-11-19T06:53:10.591Z,101240.56
2022-11-19T06:56:07.899Z,101235.84
2022-11-19T06:59:05.732Z,101241.13
2022-11-19T07:02:02.707Z,101242.53
2022-11-19T07:04:59.385Z,101256.16
2022-11-19T07:08:01.571Z,101261.16
2022-11-19T07:11:00.904Z,101255.31
2022-11-19T07:13:58.929Z,101242.50
2022-11-19T07:16:56.244Z,101249.72
2022-11-19T07:19:53.769Z,101255.56
2022-11-19T07:22:53.667Z,101266.69
2022-11-19T07:26:00.272Z,101271.41
2022-11-19T07:29:01.738Z,101278.94
2022-11-19T07:32:01.463Z,101275.59
2022-11-19T07:34:58.953Z,101269.75
2022-11-19T07:37:56.555Z,101264.47
2022-11-19T07:40:54.766Z,101265.00
2022-11-19T07:43:51.705Z,101278.09
2022-11-19T07:46:48.378Z,101288.91
2022-11-19T07:49:45.743Z,101290.59
2022-11-19T07:52:42.822Z,101286.44
2022-11-19T07:55:39.690Z,101311.13
2022-11-19T07:58:36.702Z,101306.69
2022-11-19T08:01:33.759Z,101311.94
2022-11-19T08:04:30.884Z,101307.13
2022-11-19T08:07:27.754Z,101313.47
2022-11-19T08:10:31.463Z,101309.31
2022-11-19T08:13:28.719Z,101317.00
2022-11-19T08:16:44.205Z,101320.91
2022-11-19T08:19:41.885Z,101334.09
2022-11-19T08:22:41.996Z,101323.22
2022-11-19T08:25:41.863Z,101317.13
2022-11-19T08:28:38.585Z,101319.66
2022-11-19T08:31:35.450Z,101321.31
2022-11-19T08:34:32.316Z,101306.25
2022-11-19T08:37:29.456Z,101308.44
2022-11-19T08:40:26.416Z,101308.03
2022-11-19T08:43:24.965Z,101301.75
2022-11-19T08:46:22.434Z,101302.31
2022-11-19T08:49:20.035Z,101302.56
2022-11-19T08:52:17.793Z,101312.19
2022-11-19T08:55:14.799Z,101336.88
2022-11-19T08:58:11.586Z,101334.63
2022-11-19T09:01:12.162Z,101317.09
2022-11-19T09:04:09.825Z,101320.13
2022-11-19T09:07:06.866Z,101322.81
2022-11-19T09:10:03.897Z,101320.72
2022-11-19T09:13:04.594Z,101312.06
2022-11-19T09:16:01.643Z,101336.06
2022-11-19T09:18:58.293Z,101322.75
2022-11-19T09:21:55.844Z,101332.06
2022-11-19T09:24:52.868Z,101330.34
2022-11-19T09:27:49.893Z,101326.84
2022-11-19T09:31:00.918Z,101334.00
2022-11-19T09:33:57.760Z,101335.31
2022-11-19T09:36:54.994Z,101336.44
2022-11-19T09:39:55.727Z,101338.88
2022-11-19T09:43:34.270Z,101341.44
2022-11-19T09:46:40.754Z,101328.22
2022-11-19T09:49:41.773Z,101332.19
2022-11-19T09:52:43.992Z,101342.72
2022-11-19T09:55:43.941Z,101356.22
2022-11-19T09:58:45.299Z,101341.09
2022-11-19T10:01:42.336Z,101345.66
2022-11-19T10:04:39.859Z,101352.59
2022-11-19T10:08:05.828Z,101346.53
2022-11-19T10:11:21.216Z,101339.53
2022-11-19T10:14:27.415Z,101313.22
2022-11-19T10:17:33.089Z,101300.03
2022-11-19T10:20:59.565Z,101296.97
2022-11-19T10:24:20.157Z,101314.53
2022-11-19T10:27:41.329Z,101300.16
2022-11-19T10:30:38.495Z,101296.28
2022-11-19T10:34:13.044Z,101297.53
2022-11-19T10:37:16.818Z,101294.03
2022-11-19T10:40:18.735Z,101311.66
2022-11-19T10:43:46.369Z,101299.19
2022-11-19T10:46:44.091Z,101329.31
2022-11-19T10:49:42.050Z,101348.13
2022-11-19T10:52:41.911Z,101348.13
2022-11-19T10:55:41.147Z,101358.41
2022-11-19T10:58:54.635Z,101329.34
2022-11-19T11:02:00.411Z,101329.19
2022-11-19T11:05:04.718Z,101303.38
2022-11-19T11:08:01.995Z,101296.19
2022-11-19T11:10:59.931Z,101293.41
2022-11-19T11:14:17.577Z,101292.81
2022-11-19T11:17:20.261Z,101273.63
2022-11-19T11:20:17.753Z,101266.28
2022-11-19T11:23:19.791Z,101269.19
2022-11-19T11:26:34.907Z,101272.63
2022-11-19T11:29:31.467Z,101278.50
2022-11-19T11:32:30.613Z,101257.66
2022-11-19T11:35:31.901Z,101283.25
2022-11-19T11:38:28.996Z,101284.72
2022-11-19T11:44:57.978Z,101293.53
2022-11-19T11:47:54.721Z,101294.38
2022-11-19T11:50:51.700Z,101271.59
2022-11-19T11:53:50.665Z,101274.97
2022-11-19T11:56:47.680Z,101285.75
2022-11-19T11:59:45.158Z,101266.34
2022-11-19T12:02:43.209Z,101251.00
2022-11-19T12:05:44.321Z,101252.84
2022-11-19T12:09:23.838Z,101248.53
2022-11-19T12:12:33.108Z,101244.22
2022-11-19T12:15:57.292Z,101249.78
2022-11-19T12:19:14.607Z,101263.25
2022-11-19T12:22:30.012Z,101265.97
2022-11-19T12:25:49.938Z,101239.91
2022-11-19T12:29:08.076Z,101249.28
2022-11-19T12:32:35.810Z,101235.81
2022-11-19T12:35:42.082Z,101275.91
2022-11-19T12:38:42.743Z,101280.25
2022-11-19T12:41:54.264Z,101267.84
2022-11-19T12:45:13.503Z,101257.06
2022-11-19T12:48:25.995Z,101212.88
2022-11-19T12:52:00.061Z,101212.94
2022-11-19T12:55:14.315Z,101212.44
2022-11-19T12:58:21.315Z,101206.19
2022-11-19T13:01:23.339Z,101213.94
2022-11-19T13:04:40.523Z,101224.53
2022-11-19T13:07:39.980Z,101246.25
2022-11-19T13:10:44.776Z,101244.84
2022-11-19T13:13:44.629Z,101216.25
2022-11-19T13:16:41.708Z,101212.72
2022-11-19T13:19:38.790Z,101200.75
2022-11-19T13:22:36.893Z,101197.47
2022-11-19T13:25:40.203Z,101204.06
2022-11-19T13:29:02.116Z,101202.34
2022-11-19T13:32:12.833Z,101212.56
2022-11-19T13:35:46.001Z,101217.88
2022-11-19T13:38:55.313Z,101239.84
2022-11-19T13:42:11.982Z,101242.31
2022-11-19T13:45:14.568Z,101235.94
2022-11-19T13:48:25.108Z,101203.63
2022-11-19T13:51:29.302Z,101195.81
2022-11-19T13:54:29.440Z,101200.31
2022-11-19T13:57:32.156Z,101189.91
2022-11-19T14:00:28.786Z,101192.75
2022-11-19T14:03:54.273Z,101184.59
2022-11-19T14:07:13.826Z,101181.63
2022-11-19T14:10:38.384Z,101183.59
2022-11-19T14:13:45.280Z,101194.84
2022-11-19T14:17:10.551Z,101207.44
2022-11-19T14:20:54.512Z,101213.13
2022-11-19T14:24:10.734Z,101213.81
2022-11-19T14:27:18.756Z,101203.75
2022-11-19T14:30:17.701Z,101199.59
2022-11-19T14:33:42.964Z,101207.81
2022-11-19T14:36:58.784Z,101191.63
2022-11-19T14:40:07.927Z,101191.50
2022-11-19T14:43:23.472Z,101198.56
2022-11-19T14:46:25.532Z,101206.00
2022-11-19T14:49:28.942Z,101189.06
2022-11-19T14:52:39.484Z,101178.78
2022-11-19T14:55:36.761Z,101172.66
2022-11-19T14:58:33.676Z,101171.09
2022-11-19T15:01:30.846Z,101166.69
2022-11-19T15:04:36.451Z,101164.00
2022-11-19T15:07:33.706Z,101172.94
2022-11-19T15:10:31.858Z,101162.38
2022-11-19T15:13:30.122Z,101166.38
2022-11-19T15:16:26.962Z,101176.97
2022-11-19T15:19:50.851Z,101175.50
2022-11-19T15:23:08.915Z,101165.69
2022-11-19T15:26:11.464Z,101161.72
2022-11-19T15:29:47.263Z,101160.34
2022-11-19T15:32:56.632Z,101158.06
2022-11-19T15:36:00.049Z,101170.00
2022-11-19T15:39:09.701Z,101161.72
2022-11-19T15:42:12.046Z,101161.78
2022-11-19T15:45:15.682Z,101160.25
2022-11-19T15:48:20.431Z,101160.44
2022-11-19T15:51:18.169Z,101157.72
2022-11-19T15:54:15.219Z,101161.81
2022-11-19T15:57:24.742Z,101158.66
2022-11-19T16:00:22.561Z,101163.25
2022-11-19T16:03:20.153Z,101166.75
2022-11-19T16:06:17.041Z,101167.66
2022-11-19T16:09:19.477Z,101166.06
2022-11-19T16:12:43.396Z,101166.72
2022-11-19T16:16:06.299Z,101167.03
2022-11-19T16:19:03.994Z,101171.31
2022-11-19T16:22:02.006Z,101165.34
2022-11-19T16:25:04.760Z,101167.44
2022-11-19T16:28:07.219Z,101178.81
2022-11-19T16:31:05.040Z,101175.16
2022-11-19T16:34:02.107Z,101184.25
2022-11-19T16:36:59.044Z,101184.31
2022-11-19T16:39:56.004Z,101183.91
2022-11-19T16:42:54.932Z,101184.34
2022-11-19T16:45:52.127Z,101186.97
2022-11-19T16:48:48.935Z,101170.47
2022-11-19T16:51:53.349Z,101163.53
2022-11-19T16:54:51.097Z,101167.03
2022-11-19T16:57:56.118Z,101168.69
2022-11-19T17:00:55.469Z,101171.84
2022-11-19T17:03:52.866Z,101164.00
2022-11-19T17:06:50.127Z,101154.03
2022-11-19T17:09:47.890Z,101175.16
2022-11-19T17:12:54.973Z,101173.56
2022-11-19T17:15:52.360Z,101206.03
2022-11-19T17:18:50.444Z,101207.63
2022-11-19T17:21:51.869Z,101204.41
2022-11-19T17:24:49.210Z,101194.03
2022-11-19T17:27:49.109Z,101190.97
2022-11-19T17:30:46.148Z,101195.16
2022-11-19T17:34:07.843Z,101185.94
2022-11-19T17:37:07.646Z,101193.53
2022-11-19T17:40:05.401Z,101196.22
2022-11-19T17:43:21.597Z,101187.94
2022-11-19T17:46:18.837Z,101196.91
2022-11-19T17:49:16.111Z,101209.22
2022-11-19T17:52:27.034Z,101210.63
2022-11-19T17:55:24.246Z,101211.03
2022-11-19T17:58:21.309Z,101206.09
2022-11-19T18:01:19.275Z,101199.44
2022-11-19T18:04:17.505Z,101192.75
2022-11-19T18:07:15.448Z,101187.06
2022-11-19T18:10:13.219Z,101196.00
2022-11-19T18:13:11.317Z,101193.03
2022-11-19T18:16:16.974Z,101200.88
2022-11-19T18:19:23.323Z,101202.94
2022-11-19T18:22:20.984Z,101198.25
2022-11-19T18:25:18.769Z,101199.91
2022-11-19T18:28:16.181Z,101218.22
2022-11-19T18:31:33.283Z,101230.25
2022-11-19T18:34:30.165Z,101208.38
2022-11-19T18:37:28.215Z,101205.38
2022-11-19T18:40:26.475Z,101206.00
2022-11-19T18:43:42.272Z,101202.78
2022-11-19T18:46:39.991Z,101206.66
2022-11-19T18:49:37.645Z,101210.34
2022-11-19T18:52:35.361Z,101205.91
2022-11-19T18:55:33.258Z,101209.19
2022-11-19T18:58:30.184Z,101201.50
2022-11-19T19:01:27.684Z,101193.78
2022-11-19T19:04:25.189Z,101197.16
2022-11-19T19:07:22.075Z,101194.63
2022-11-19T19:10:20.198Z,101179.88
2022-11-19T19:13:17.115Z,101198.81
2022-11-19T19:16:14.063Z,101204.25
2022-11-19T19:19:11.429Z,101195.84
2022-11-19T19:22:09.199Z,101193.09
2022-11-19T19:25:06.234Z,101180.97
2022-11-19T19:28:03.427Z,101198.69
2022-11-19T19:31:01.123Z,101199.31
2022-11-19T19:33:58.636Z,101192.50
2022-11-19T19:36:55.802Z,101183.66
2022-11-19T19:39:53.255Z,101171.88
2022-11-19T19:42:50.293Z,101172.22
2022-11-19T19:45:49.068Z,101192.94
2022-11-19T19:48:50.209Z,101186.44
2022-11-19T19:51:46.913Z,101187.53
2022-11-19T19:54:43.953Z,101181.44
2022-11-19T19:57:40.915Z,101182.84
2022-11-19T20:00:38.841Z,101184.75
2022-11-19T20:03:36.721Z,101184.72
2022-11-19T20:06:35.369Z,101171.16
2022-11-19T20:09:31.961Z,101152.09
2022-11-19T20:12:49.122Z,101157.78
2022-11-19T20:15:48.209Z,101165.44
2022-11-19T20:18:45.951Z,101152.13
2022-11-19T20:21:43.291Z,101158.78
2022-11-19T20:24:40.216Z,101175.69
2022-11-19T20:27:37.178Z,101182.06
2022-11-19T20:30:34.081Z,101208.75
2022-11-19T20:33:31.205Z,101199.94
2022-11-19T20:36:29.758Z,101184.38
2022-11-19T20:39:27.192Z,101162.81
2022-11-19T20:42:42.372Z,101160.09
2022-11-19T20:45:39.326Z,101151.38
2022-11-19T20:48:36.287Z,101158.88
2022-11-19T20:51:35.062Z,101163.34
2022-11-19T20:54:32.470Z,101164.47
2022-11-19T20:57:29.917Z,101176.84
2022-11-19T21:00:27.465Z,101193.81
2022-11-19T21:03:24.947Z,101204.03
2022-11-19T21:06:22.109Z,101218.81
2022-11-19T21:09:19.935Z,101211.47
2022-11-19T21:12:17.019Z,101183.81
2022-11-19T21:15:14.904Z,101188.03
2022-11-19T21:18:12.194Z,101197.09
2022-11-19T21:21:10.290Z,101203.53
2022-11-19T21:24:07.762Z,101192.41
2022-11-19T21:27:04.764Z,101163.25
2022-11-19T21:30:02.122Z,101164.22
2022-11-19T21:32:59.994Z,101161.22
2022-11-19T21:35:57.278Z,101157.41
2022-11-19T21:38:54.222Z,101176.19
2022-11-19T21:41:51.284Z,101192.84
2022-11-19T21:44:48.159Z,101161.72
2022-11-19T21:47:45.185Z,101154.25
2022-11-19T21:50:42.254Z,101146.00
2022-11-19T21:53:41.709Z,101152.69
2022-11-19T21:56:39.261Z,101151.59
2022-11-19T21:59:36.038Z,101143.00
2022-11-19T22:02:32.901Z,101151.09
2022-11-19T22:05:30.018Z,101154.97
2022-11-19T22:08:32.044Z,101164.63
2022-11-19T22:11:29.114Z,101172.31
2022-11-19T22:14:26.001Z,101163.75
2022-11-19T22:17:23.246Z,101131.97
2022-11-19T22:20:20.366Z,101130.69
2022-11-19T22:23:22.961Z,101132.84
2022-11-19T22:26:21.028Z,101152.81
2022-11-19T22:29:18.375Z,101163.41
2022-11-19T22:32:14.950Z,101157.31
2022-11-19T22:35:12.327Z,101147.03
2022-11-19T22:38:09.242Z,101140.38
2022-11-19T22:41:11.419Z,101147.59
2022-11-19T22:44:08.003Z,101138.44
2022-11-19T22:47:04.982Z,101119.28
2022-11-19T22:50:02.135Z,101134.25
2022-11-19T22:52:59.315Z,101123.16
2022-11-19T22:56:00.816Z,101109.00
2022-11-19T22:58:58.299Z,101110.38
2022-11-19T23:01:54.907Z,101142.81
2022-11-19T23:04:52.304Z,101158.13
2022-11-19T23:07:49.880Z,101129.34
2022-11-19T23:10:48.194Z,101105.69
2022-11-19T23:13:45.259Z,101129.16
2022-11-19T23:16:41.836Z,101125.94
2022-11-19T23:19:38.981Z,101113.41
2022-11-19T23:22:36.081Z,101105.69
2022-11-19T23:25:33.004Z,101107.63
2022-11-19T23:28:31.187Z,101129.69
2022-11-19T23:31:30.189Z,101139.63
2022-11-19T23:34:27.308Z,101127.25
2022-11-19T23:37:24.404Z,101118.00
2022-11-19T23:40:21.239Z,101131.44
2022-11-19T23:43:18.415Z,101132.28
2022-11-19T23:46:20.001Z,101138.28
2022-11-19T23:49:17.201Z,101123.84
2022-11-19T23:52:14.024Z,101109.41
2022-11-19T23:55:11.301Z,101133.72
2022-11-19T23:58:08.004Z,101089.38
